sensor_id;sensor_type;location;lat;lon;timestamp;P1;durP1;ratioP1;P2;durP2;ratioP2
15643;SDS011;7921;43.586;1.408;2022-07-29T00:02:20;2.08;;;1.52;;
15643;SDS011;7921;43.586;1.408;2022-07-29T00:04:46;1.50;;;1.35;;
15643;SDS011;7921;43.586;1.408;2022-07-29T00:07:11;1.30;;;1.20;;
15643;SDS011;7921;43.586;1.408;2022-07-29T00:09:36;1.50;;;1.40;;
15643;SDS011;7921;43.586;1.408;2022-07-29T00:12:02;1.55;;;1.27;;
15643;SDS011;7921;43.586;1.408;2022-07-29T00:14:28;1.60;;;1.50;;
15643;SDS011;7921;43.586;1.408;2022-07-29T00:16:53;1.20;;;1.10;;
15643;SDS011;7921;43.586;1.408;2022-07-29T00:19:19;2.17;;;1.42;;
15643;SDS011;7921;43.586;1.408;2022-07-29T00:21:44;2.88;;;1.23;;
15643;SDS011;7921;43.586;1.408;2022-07-29T00:24:09;1.75;;;1.45;;
15643;SDS011;7921;43.586;1.408;2022-07-29T00:26:35;2.20;;;1.30;;
15643;SDS011;7921;43.586;1.408;2022-07-29T00:29:01;1.45;;;1.20;;
15643;SDS011;7921;43.586;1.408;2022-07-29T00:31:28;2.47;;;1.38;;
15643;SDS011;7921;43.586;1.408;2022-07-29T00:33:53;1.73;;;1.30;;
15643;SDS011;7921;43.586;1.408;2022-07-29T00:36:19;2.45;;;1.50;;
15643;SDS011;7921;43.586;1.408;2022-07-29T00:38:46;2.45;;;1.48;;
15643;SDS011;7921;43.586;1.408;2022-07-29T00:41:15;2.58;;;1.17;;
15643;SDS011;7921;43.586;1.408;2022-07-29T00:43:40;1.58;;;1.20;;
15643;SDS011;7921;43.586;1.408;2022-07-29T00:46:06;1.92;;;1.20;;
15643;SDS011;7921;43.586;1.408;2022-07-29T00:48:32;2.45;;;1.70;;
15643;SDS011;7921;43.586;1.408;2022-07-29T00:50:57;2.00;;;1.35;;
15643;SDS011;7921;43.586;1.408;2022-07-29T00:53:24;1.40;;;1.20;;
15643;SDS011;7921;43.586;1.408;2022-07-29T00:55:50;1.63;;;1.15;;
15643;SDS011;7921;43.586;1.408;2022-07-29T00:58:16;2.30;;;1.13;;
15643;SDS011;7921;43.586;1.408;2022-07-29T01:00:41;3.20;;;1.20;;
15643;SDS011;7921;43.586;1.408;2022-07-29T01:03:07;1.50;;;1.40;;
15643;SDS011;7921;43.586;1.408;2022-07-29T01:05:34;1.73;;;1.35;;
15643;SDS011;7921;43.586;1.408;2022-07-29T01:07:59;1.65;;;1.45;;
15643;SDS011;7921;43.586;1.408;2022-07-29T01:10:25;2.38;;;1.40;;
15643;SDS011;7921;43.586;1.408;2022-07-29T01:12:51;1.92;;;1.42;;
15643;SDS011;7921;43.586;1.408;2022-07-29T01:15:18;2.13;;;1.20;;
15643;SDS011;7921;43.586;1.408;2022-07-29T01:34:17;1.33;;;1.20;;
15643;SDS011;7921;43.586;1.408;2022-07-29T01:37:04;5.18;;;1.17;;
15643;SDS011;7921;43.586;1.408;2022-07-29T01:39:36;1.60;;;1.08;;
15643;SDS011;7921;43.586;1.408;2022-07-29T01:45:11;1.88;;;1.30;;
15643;SDS011;7921;43.586;1.408;2022-07-29T01:50:52;2.38;;;1.42;;
15643;SDS011;7921;43.586;1.408;2022-07-29T01:53:26;4.13;;;1.85;;
15643;SDS011;7921;43.586;1.408;2022-07-29T01:55:54;4.13;;;1.38;;
15643;SDS011;7921;43.586;1.408;2022-07-29T01:58:21;2.60;;;1.20;;
15643;SDS011;7921;43.586;1.408;2022-07-29T02:00:48;2.83;;;1.60;;
15643;SDS011;7921;43.586;1.408;2022-07-29T02:03:13;1.45;;;1.35;;
15643;SDS011;7921;43.586;1.408;2022-07-29T02:05:41;1.40;;;1.30;;
15643;SDS011;7921;43.586;1.408;2022-07-29T02:08:07;1.58;;;1.33;;
15643;SDS011;7921;43.586;1.408;2022-07-29T02:10:33;1.30;;;1.10;;
15643;SDS011;7921;43.586;1.408;2022-07-29T02:13:00;1.80;;;1.38;;
15643;SDS011;7921;43.586;1.408;2022-07-29T02:15:28;1.98;;;1.45;;
15643;SDS011;7921;43.586;1.408;2022-07-29T02:17:56;1.88;;;1.10;;
15643;SDS011;7921;43.586;1.408;2022-07-29T02:20:24;1.27;;;1.17;;
15643;SDS011;7921;43.586;1.408;2022-07-29T02:22:50;3.28;;;1.20;;
15643;SDS011;7921;43.586;1.408;2022-07-29T02:25:17;2.00;;;1.33;;
15643;SDS011;7921;43.586;1.408;2022-07-29T02:27:43;2.15;;;1.10;;
15643;SDS011;7921;43.586;1.408;2022-07-29T02:30:09;1.30;;;1.10;;
15643;SDS011;7921;43.586;1.408;2022-07-29T02:32:36;2.47;;;1.30;;
15643;SDS011;7921;43.586;1.408;2022-07-29T02:35:02;2.38;;;1.20;;
15643;SDS011;7921;43.586;1.408;2022-07-29T02:37:28;2.00;;;1.38;;
15643;SDS011;7921;43.586;1.408;2022-07-29T02:39:54;3.15;;;1.27;;
15643;SDS011;7921;43.586;1.408;2022-07-29T02:42:21;2.03;;;1.40;;
15643;SDS011;7921;43.586;1.408;2022-07-29T02:44:48;1.52;;;1.20;;
15643;SDS011;7921;43.586;1.408;2022-07-29T02:47:17;3.88;;;1.45;;
15643;SDS011;7921;43.586;1.408;2022-07-29T02:57:44;2.03;;;1.30;;
15643;SDS011;7921;43.586;1.408;2022-07-29T03:00:12;1.98;;;1.30;;
15643;SDS011;7921;43.586;1.408;2022-07-29T03:02:40;1.42;;;1.17;;
15643;SDS011;7921;43.586;1.408;2022-07-29T03:05:09;1.30;;;1.20;;
15643;SDS011;7921;43.586;1.408;2022-07-29T03:07:37;1.35;;;1.20;;
15643;SDS011;7921;43.586;1.408;2022-07-29T03:10:03;1.50;;;1.40;;
15643;SDS011;7921;43.586;1.408;2022-07-29T03:12:30;1.33;;;1.23;;
15643;SDS011;7921;43.586;1.408;2022-07-29T03:14:55;2.42;;;1.40;;
15643;SDS011;7921;43.586;1.408;2022-07-29T03:17:21;3.67;;;1.30;;
15643;SDS011;7921;43.586;1.408;2022-07-29T03:19:47;1.55;;;1.10;;
15643;SDS011;7921;43.586;1.408;2022-07-29T03:22:12;2.08;;;1.20;;
15643;SDS011;7921;43.586;1.408;2022-07-29T03:24:38;1.67;;;1.23;;
15643;SDS011;7921;43.586;1.408;2022-07-29T03:27:04;1.67;;;1.17;;
15643;SDS011;7921;43.586;1.408;2022-07-29T03:29:30;2.35;;;1.20;;
15643;SDS011;7921;43.586;1.408;2022-07-29T03:31:56;2.88;;;1.23;;
15643;SDS011;7921;43.586;1.408;2022-07-29T03:34:22;2.22;;;1.40;;
15643;SDS011;7921;43.586;1.408;2022-07-29T03:36:48;1.30;;;1.20;;
15643;SDS011;7921;43.586;1.408;2022-07-29T03:39:15;3.70;;;1.48;;
15643;SDS011;7921;43.586;1.408;2022-07-29T03:41:42;2.88;;;1.23;;
15643;SDS011;7921;43.586;1.408;2022-07-29T03:44:09;1.42;;;1.20;;
15643;SDS011;7921;43.586;1.408;2022-07-29T03:46:36;2.15;;;1.35;;
15643;SDS011;7921;43.586;1.408;2022-07-29T03:49:02;3.92;;;1.27;;
15643;SDS011;7921;43.586;1.408;2022-07-29T03:51:29;2.08;;;1.38;;
15643;SDS011;7921;43.586;1.408;2022-07-29T03:53:55;1.50;;;1.02;;
15643;SDS011;7921;43.586;1.408;2022-07-29T03:56:21;1.42;;;1.27;;
15643;SDS011;7921;43.586;1.408;2022-07-29T03:58:50;1.75;;;1.20;;
15643;SDS011;7921;43.586;1.408;2022-07-29T04:01:16;2.25;;;1.40;;
15643;SDS011;7921;43.586;1.408;2022-07-29T04:03:43;3.33;;;1.40;;
15643;SDS011;7921;43.586;1.408;2022-07-29T04:06:10;3.70;;;1.50;;
15643;SDS011;7921;43.586;1.408;2022-07-29T04:08:35;2.33;;;1.35;;
15643;SDS011;7921;43.586;1.408;2022-07-29T04:11:01;1.35;;;1.02;;
15643;SDS011;7921;43.586;1.408;2022-07-29T04:13:27;2.33;;;1.10;;
15643;SDS011;7921;43.586;1.408;2022-07-29T04:15:53;1.95;;;1.10;;
15643;SDS011;7921;43.586;1.408;2022-07-29T04:18:18;2.70;;;1.50;;
15643;SDS011;7921;43.586;1.408;2022-07-29T04:20:44;1.67;;;1.00;;
15643;SDS011;7921;43.586;1.408;2022-07-29T04:23:09;1.60;;;1.30;;
15643;SDS011;7921;43.586;1.408;2022-07-29T04:25:39;2.70;;;1.50;;
15643;SDS011;7921;43.586;1.408;2022-07-29T04:28:05;1.50;;;1.10;;
15643;SDS011;7921;43.586;1.408;2022-07-29T04:30:31;2.13;;;1.42;;
15643;SDS011;7921;43.586;1.408;2022-07-29T04:32:57;1.55;;;1.13;;
15643;SDS011;7921;43.586;1.408;2022-07-29T04:35:23;1.60;;;1.10;;
15643;SDS011;7921;43.586;1.408;2022-07-29T04:37:48;1.00;;;0.90;;
15643;SDS011;7921;43.586;1.408;2022-07-29T04:40:14;2.30;;;1.20;;
15643;SDS011;7921;43.586;1.408;2022-07-29T04:42:39;1.42;;;1.15;;
15643;SDS011;7921;43.586;1.408;2022-07-29T04:45:05;1.98;;;1.33;;
15643;SDS011;7921;43.586;1.408;2022-07-29T04:47:30;1.35;;;1.10;;
15643;SDS011;7921;43.586;1.408;2022-07-29T04:49:56;3.05;;;1.75;;
15643;SDS011;7921;43.586;1.408;2022-07-29T04:52:22;1.45;;;1.13;;
15643;SDS011;7921;43.586;1.408;2022-07-29T04:54:48;3.58;;;1.40;;
15643;SDS011;7921;43.586;1.408;2022-07-29T04:57:13;2.60;;;1.25;;
15643;SDS011;7921;43.586;1.408;2022-07-29T04:59:39;2.90;;;1.20;;
15643;SDS011;7921;43.586;1.408;2022-07-29T05:02:04;3.58;;;1.58;;
15643;SDS011;7921;43.586;1.408;2022-07-29T05:04:29;3.03;;;1.70;;
15643;SDS011;7921;43.586;1.408;2022-07-29T05:06:55;3.22;;;1.30;;
15643;SDS011;7921;43.586;1.408;2022-07-29T05:09:20;3.17;;;1.73;;
15643;SDS011;7921;43.586;1.408;2022-07-29T05:11:46;1.52;;;1.42;;
15643;SDS011;7921;43.586;1.408;2022-07-29T05:14:11;3.03;;;1.67;;
15643;SDS011;7921;43.586;1.408;2022-07-29T05:16:36;3.90;;;2.00;;
15643;SDS011;7921;43.586;1.408;2022-07-29T05:19:02;3.47;;;1.73;;
15643;SDS011;7921;43.586;1.408;2022-07-29T05:21:27;6.80;;;2.70;;
15643;SDS011;7921;43.586;1.408;2022-07-29T05:23:53;4.45;;;2.50;;
15643;SDS011;7921;43.586;1.408;2022-07-29T05:26:18;4.38;;;2.10;;
15643;SDS011;7921;43.586;1.408;2022-07-29T05:28:43;5.55;;;1.80;;
15643;SDS011;7921;43.586;1.408;2022-07-29T05:31:09;3.80;;;1.83;;
15643;SDS011;7921;43.586;1.408;2022-07-29T05:33:34;2.63;;;1.90;;
15643;SDS011;7921;43.586;1.408;2022-07-29T05:36:00;3.50;;;1.75;;
15643;SDS011;7921;43.586;1.408;2022-07-29T05:38:25;2.15;;;1.70;;
15643;SDS011;7921;43.586;1.408;2022-07-29T05:40:50;3.30;;;2.60;;
15643;SDS011;7921;43.586;1.408;2022-07-29T05:43:16;5.18;;;1.90;;
15643;SDS011;7921;43.586;1.408;2022-07-29T05:45:41;3.40;;;1.88;;
15643;SDS011;7921;43.586;1.408;2022-07-29T05:48:07;5.05;;;2.78;;
15643;SDS011;7921;43.586;1.408;2022-07-29T05:50:32;3.35;;;1.90;;
15643;SDS011;7921;43.586;1.408;2022-07-29T05:52:57;3.42;;;1.77;;
15643;SDS011;7921;43.586;1.408;2022-07-29T05:55:23;3.83;;;2.13;;
15643;SDS011;7921;43.586;1.408;2022-07-29T05:57:48;4.28;;;2.35;;
15643;SDS011;7921;43.586;1.408;2022-07-29T06:00:14;4.40;;;2.30;;
15643;SDS011;7921;43.586;1.408;2022-07-29T06:02:39;3.33;;;1.92;;
15643;SDS011;7921;43.586;1.408;2022-07-29T06:05:05;2.83;;;1.85;;
15643;SDS011;7921;43.586;1.408;2022-07-29T06:07:30;3.05;;;1.95;;
15643;SDS011;7921;43.586;1.408;2022-07-29T06:09:57;2.88;;;2.00;;
15643;SDS011;7921;43.586;1.408;2022-07-29T06:12:22;4.07;;;2.00;;
15643;SDS011;7921;43.586;1.408;2022-07-29T06:14:48;3.63;;;2.00;;
15643;SDS011;7921;43.586;1.408;2022-07-29T06:17:13;3.30;;;2.13;;
15643;SDS011;7921;43.586;1.408;2022-07-29T06:19:41;5.10;;;2.10;;
15643;SDS011;7921;43.586;1.408;2022-07-29T06:22:06;2.88;;;2.17;;
15643;SDS011;7921;43.586;1.408;2022-07-29T06:24:31;3.25;;;2.30;;
15643;SDS011;7921;43.586;1.408;2022-07-29T06:26:58;4.63;;;2.17;;
15643;SDS011;7921;43.586;1.408;2022-07-29T06:29:24;2.28;;;1.90;;
15643;SDS011;7921;43.586;1.408;2022-07-29T06:31:49;3.75;;;2.00;;
15643;SDS011;7921;43.586;1.408;2022-07-29T06:34:15;3.15;;;2.25;;
15643;SDS011;7921;43.586;1.408;2022-07-29T06:36:41;2.70;;;1.70;;
15643;SDS011;7921;43.586;1.408;2022-07-29T06:39:06;5.75;;;1.90;;
15643;SDS011;7921;43.586;1.408;2022-07-29T06:41:32;3.85;;;2.20;;
15643;SDS011;7921;43.586;1.408;2022-07-29T06:43:58;2.83;;;2.35;;
15643;SDS011;7921;43.586;1.408;2022-07-29T06:46:24;2.72;;;1.90;;
15643;SDS011;7921;43.586;1.408;2022-07-29T06:48:49;3.58;;;2.33;;
15643;SDS011;7921;43.586;1.408;2022-07-29T06:51:15;2.85;;;2.03;;
15643;SDS011;7921;43.586;1.408;2022-07-29T06:53:41;4.28;;;1.90;;
15643;SDS011;7921;43.586;1.408;2022-07-29T06:56:07;2.08;;;1.88;;
15643;SDS011;7921;43.586;1.408;2022-07-29T06:58:37;2.95;;;1.80;;
15643;SDS011;7921;43.586;1.408;2022-07-29T07:01:03;4.55;;;2.20;;
15643;SDS011;7921;43.586;1.408;2022-07-29T07:03:30;2.28;;;2.03;;
15643;SDS011;7921;43.586;1.408;2022-07-29T07:05:55;3.45;;;1.67;;
15643;SDS011;7921;43.586;1.408;2022-07-29T07:08:21;2.60;;;2.15;;
15643;SDS011;7921;43.586;1.408;2022-07-29T07:10:48;1.92;;;1.73;;
15643;SDS011;7921;43.586;1.408;2022-07-29T07:13:14;3.67;;;2.20;;
15643;SDS011;7921;43.586;1.408;2022-07-29T07:15:42;1.85;;;1.70;;
15643;SDS011;7921;43.586;1.408;2022-07-29T07:18:07;2.38;;;1.90;;
15643;SDS011;7921;43.586;1.408;2022-07-29T07:20:33;2.50;;;1.90;;
15643;SDS011;7921;43.586;1.408;2022-07-29T07:22:59;3.05;;;1.73;;
15643;SDS011;7921;43.586;1.408;2022-07-29T07:25:24;2.20;;;1.85;;
15643;SDS011;7921;43.586;1.408;2022-07-29T07:27:50;5.05;;;1.90;;
15643;SDS011;7921;43.586;1.408;2022-07-29T07:30:15;2.42;;;1.70;;
15643;SDS011;7921;43.586;1.408;2022-07-29T07:32:41;2.33;;;2.03;;
15643;SDS011;7921;43.586;1.408;2022-07-29T07:35:07;2.58;;;1.67;;
15643;SDS011;7921;43.586;1.408;2022-07-29T07:37:33;3.20;;;2.15;;
15643;SDS011;7921;43.586;1.408;2022-07-29T07:39:59;2.60;;;2.00;;
15643;SDS011;7921;43.586;1.408;2022-07-29T07:42:25;3.40;;;2.30;;
15643;SDS011;7921;43.586;1.408;2022-07-29T07:44:51;3.40;;;1.90;;
15643;SDS011;7921;43.586;1.408;2022-07-29T07:47:16;2.90;;;2.17;;
15643;SDS011;7921;43.586;1.408;2022-07-29T07:49:45;2.35;;;1.80;;
15643;SDS011;7921;43.586;1.408;2022-07-29T07:52:11;3.00;;;2.03;;
15643;SDS011;7921;43.586;1.408;2022-07-29T07:54:37;2.63;;;1.73;;
15643;SDS011;7921;43.586;1.408;2022-07-29T07:57:03;2.55;;;1.88;;
15643;SDS011;7921;43.586;1.408;2022-07-29T07:59:28;2.80;;;1.67;;
15643;SDS011;7921;43.586;1.408;2022-07-29T08:01:54;2.15;;;1.90;;
15643;SDS011;7921;43.586;1.408;2022-07-29T08:04:19;2.00;;;1.85;;
15643;SDS011;7921;43.586;1.408;2022-07-29T08:06:44;4.38;;;2.25;;
15643;SDS011;7921;43.586;1.408;2022-07-29T08:09:10;4.80;;;2.35;;
15643;SDS011;7921;43.586;1.408;2022-07-29T08:11:35;3.72;;;2.15;;
15643;SDS011;7921;43.586;1.408;2022-07-29T08:14:00;3.03;;;1.90;;
15643;SDS011;7921;43.586;1.408;2022-07-29T08:16:26;6.13;;;2.10;;
15643;SDS011;7921;43.586;1.408;2022-07-29T08:18:52;1.85;;;1.65;;
15643;SDS011;7921;43.586;1.408;2022-07-29T08:21:21;3.25;;;2.00;;
15643;SDS011;7921;43.586;1.408;2022-07-29T08:23:48;2.08;;;1.73;;
15643;SDS011;7921;43.586;1.408;2022-07-29T08:26:40;3.58;;;2.05;;
15643;SDS011;7921;43.586;1.408;2022-07-29T08:29:06;2.70;;;1.60;;
15643;SDS011;7921;43.586;1.408;2022-07-29T08:31:31;3.28;;;2.00;;
15643;SDS011;7921;43.586;1.408;2022-07-29T08:33:57;3.97;;;2.08;;
15643;SDS011;7921;43.586;1.408;2022-07-29T08:36:24;3.72;;;1.98;;
15643;SDS011;7921;43.586;1.408;2022-07-29T08:38:50;2.20;;;2.00;;
15643;SDS011;7921;43.586;1.408;2022-07-29T08:41:15;2.85;;;1.50;;
15643;SDS011;7921;43.586;1.408;2022-07-29T08:43:43;2.30;;;1.92;;
15643;SDS011;7921;43.586;1.408;2022-07-29T08:46:09;2.33;;;2.10;;
15643;SDS011;7921;43.586;1.408;2022-07-29T08:48:35;2.22;;;2.00;;
15643;SDS011;7921;43.586;1.408;2022-07-29T08:51:01;2.50;;;1.83;;
15643;SDS011;7921;43.586;1.408;2022-07-29T08:53:26;2.20;;;2.00;;
15643;SDS011;7921;43.586;1.408;2022-07-29T08:55:53;1.90;;;1.75;;
15643;SDS011;7921;43.586;1.408;2022-07-29T08:58:19;2.53;;;2.00;;
15643;SDS011;7921;43.586;1.408;2022-07-29T09:00:47;2.28;;;1.67;;
15643;SDS011;7921;43.586;1.408;2022-07-29T09:03:18;1.92;;;1.73;;
15643;SDS011;7921;43.586;1.408;2022-07-29T09:05:47;2.30;;;1.95;;
15643;SDS011;7921;43.586;1.408;2022-07-29T09:08:14;2.15;;;2.05;;
15643;SDS011;7921;43.586;1.408;2022-07-29T09:10:40;1.80;;;1.70;;
15643;SDS011;7921;43.586;1.408;2022-07-29T09:13:05;3.75;;;1.90;;
15643;SDS011;7921;43.586;1.408;2022-07-29T09:15:31;2.08;;;1.60;;
15643;SDS011;7921;43.586;1.408;2022-07-29T09:17:56;3.20;;;1.83;;
15643;SDS011;7921;43.586;1.408;2022-07-29T09:20:23;2.45;;;1.92;;
15643;SDS011;7921;43.586;1.408;2022-07-29T09:22:50;2.65;;;1.95;;
15643;SDS011;7921;43.586;1.408;2022-07-29T09:25:37;2.60;;;1.92;;
15643;SDS011;7921;43.586;1.408;2022-07-29T09:28:14;2.65;;;1.95;;
15643;SDS011;7921;43.586;1.408;2022-07-29T09:30:53;2.95;;;2.22;;
15643;SDS011;7921;43.586;1.408;2022-07-29T09:33:21;4.78;;;2.65;;
15643;SDS011;7921;43.586;1.408;2022-07-29T09:38:32;2.38;;;1.75;;
15643;SDS011;7921;43.586;1.408;2022-07-29T09:40:59;3.28;;;2.20;;
15643;SDS011;7921;43.586;1.408;2022-07-29T09:43:26;2.58;;;1.98;;
15643;SDS011;7921;43.586;1.408;2022-07-29T09:45:52;2.80;;;1.80;;
15643;SDS011;7921;43.586;1.408;2022-07-29T09:48:18;4.55;;;1.77;;
15643;SDS011;7921;43.586;1.408;2022-07-29T09:50:48;2.17;;;2.00;;
15643;SDS011;7921;43.586;1.408;2022-07-29T09:56:02;2.40;;;2.00;;
15643;SDS011;7921;43.586;1.408;2022-07-29T09:58:28;5.13;;;1.80;;
15643;SDS011;7921;43.586;1.408;2022-07-29T10:00:54;3.10;;;1.80;;
15643;SDS011;7921;43.586;1.408;2022-07-29T10:03:20;5.30;;;2.42;;
15643;SDS011;7921;43.586;1.408;2022-07-29T10:05:46;2.65;;;2.28;;
15643;SDS011;7921;43.586;1.408;2022-07-29T10:08:38;5.05;;;2.10;;
15643;SDS011;7921;43.586;1.408;2022-07-29T10:11:14;2.05;;;1.80;;
15643;SDS011;7921;43.586;1.408;2022-07-29T10:13:40;2.83;;;2.30;;
15643;SDS011;7921;43.586;1.408;2022-07-29T10:16:06;3.50;;;1.50;;
15643;SDS011;7921;43.586;1.408;2022-07-29T10:18:33;1.95;;;1.23;;
15643;SDS011;7921;43.586;1.408;2022-07-29T10:20:59;2.55;;;1.70;;
15643;SDS011;7921;43.586;1.408;2022-07-29T10:23:26;2.33;;;1.85;;
15643;SDS011;7921;43.586;1.408;2022-07-29T10:25:53;1.85;;;1.50;;
15643;SDS011;7921;43.586;1.408;2022-07-29T10:28:18;2.55;;;1.77;;
15643;SDS011;7921;43.586;1.408;2022-07-29T10:30:44;2.65;;;1.50;;
15643;SDS011;7921;43.586;1.408;2022-07-29T10:38:41;2.33;;;1.85;;
15643;SDS011;7921;43.586;1.408;2022-07-29T10:43:55;2.58;;;1.73;;
15643;SDS011;7921;43.586;1.408;2022-07-29T10:46:35;3.05;;;1.40;;
15643;SDS011;7921;43.586;1.408;2022-07-29T10:59:39;2.70;;;1.58;;
15643;SDS011;7921;43.586;1.408;2022-07-29T11:07:23;1.30;;;1.20;;
15643;SDS011;7921;43.586;1.408;2022-07-29T11:15:02;1.70;;;1.15;;
15643;SDS011;7921;43.586;1.408;2022-07-29T11:17:30;1.90;;;1.23;;
15643;SDS011;7921;43.586;1.408;2022-07-29T11:22:58;1.25;;;1.10;;
15643;SDS011;7921;43.586;1.408;2022-07-29T11:25:24;1.95;;;1.15;;
15643;SDS011;7921;43.586;1.408;2022-07-29T11:27:49;1.27;;;1.05;;
15643;SDS011;7921;43.586;1.408;2022-07-29T11:30:16;1.88;;;1.15;;
15643;SDS011;7921;43.586;1.408;2022-07-29T11:32:42;1.67;;;1.42;;
15643;SDS011;7921;43.586;1.408;2022-07-29T11:37:37;1.95;;;1.60;;
15643;SDS011;7921;43.586;1.408;2022-07-29T11:50:11;2.15;;;1.95;;
15643;SDS011;7921;43.586;1.408;2022-07-29T11:52:40;2.33;;;1.27;;
15643;SDS011;7921;43.586;1.408;2022-07-29T11:55:14;4.05;;;1.40;;
15643;SDS011;7921;43.586;1.408;2022-07-29T11:57:57;2.25;;;1.60;;
15643;SDS011;7921;43.586;1.408;2022-07-29T12:00:30;2.85;;;1.30;;
15643;SDS011;7921;43.586;1.408;2022-07-29T12:03:06;2.03;;;1.60;;
15643;SDS011;7921;43.586;1.408;2022-07-29T12:08:05;2.55;;;1.60;;
15643;SDS011;7921;43.586;1.408;2022-07-29T12:10:32;4.85;;;1.50;;
15643;SDS011;7921;43.586;1.408;2022-07-29T12:12:58;3.47;;;1.50;;
15643;SDS011;7921;43.586;1.408;2022-07-29T12:15:23;4.60;;;1.30;;
15643;SDS011;7921;43.586;1.408;2022-07-29T12:17:50;2.47;;;1.30;;
15643;SDS011;7921;43.586;1.408;2022-07-29T12:20:36;2.25;;;1.30;;
15643;SDS011;7921;43.586;1.408;2022-07-29T12:23:04;1.92;;;1.20;;
15643;SDS011;7921;43.586;1.408;2022-07-29T12:25:32;2.00;;;1.30;;
15643;SDS011;7921;43.586;1.408;2022-07-29T12:28:02;2.30;;;1.35;;
15643;SDS011;7921;43.586;1.408;2022-07-29T12:33:19;2.28;;;1.30;;
15643;SDS011;7921;43.586;1.408;2022-07-29T12:36:07;2.25;;;1.27;;
15643;SDS011;7921;43.586;1.408;2022-07-29T12:38:33;3.63;;;1.40;;
15643;SDS011;7921;43.586;1.408;2022-07-29T12:40:59;1.63;;;1.33;;
15643;SDS011;7921;43.586;1.408;2022-07-29T12:43:25;1.50;;;1.40;;
15643;SDS011;7921;43.586;1.408;2022-07-29T12:45:51;1.92;;;1.42;;
15643;SDS011;7921;43.586;1.408;2022-07-29T12:48:32;2.30;;;1.42;;
15643;SDS011;7921;43.586;1.408;2022-07-29T12:50:59;2.13;;;1.30;;
15643;SDS011;7921;43.586;1.408;2022-07-29T12:53:25;1.27;;;1.17;;
15643;SDS011;7921;43.586;1.408;2022-07-29T12:55:51;4.00;;;1.35;;
15643;SDS011;7921;43.586;1.408;2022-07-29T13:01:04;2.47;;;1.38;;
15643;SDS011;7921;43.586;1.408;2022-07-29T13:06:27;2.17;;;1.35;;
15643;SDS011;7921;43.586;1.408;2022-07-29T13:11:33;1.23;;;1.05;;
15643;SDS011;7921;43.586;1.408;2022-07-29T13:14:07;2.45;;;1.17;;
15643;SDS011;7921;43.586;1.408;2022-07-29T13:16:34;1.52;;;1.27;;
15643;SDS011;7921;43.586;1.408;2022-07-29T13:19:06;3.03;;;1.20;;
15643;SDS011;7921;43.586;1.408;2022-07-29T13:21:34;2.67;;;1.42;;
15643;SDS011;7921;43.586;1.408;2022-07-29T13:24:00;1.45;;;1.35;;
15643;SDS011;7921;43.586;1.408;2022-07-29T13:26:25;2.55;;;1.88;;
15643;SDS011;7921;43.586;1.408;2022-07-29T13:28:50;4.05;;;1.42;;
15643;SDS011;7921;43.586;1.408;2022-07-29T13:31:16;2.08;;;1.38;;
15643;SDS011;7921;43.586;1.408;2022-07-29T13:33:41;1.67;;;1.30;;
15643;SDS011;7921;43.586;1.408;2022-07-29T13:36:07;3.08;;;1.15;;
15643;SDS011;7921;43.586;1.408;2022-07-29T13:38:32;1.70;;;1.30;;
15643;SDS011;7921;43.586;1.408;2022-07-29T13:40:58;1.73;;;1.27;;
15643;SDS011;7921;43.586;1.408;2022-07-29T13:43:23;3.70;;;1.50;;
15643;SDS011;7921;43.586;1.408;2022-07-29T13:45:48;1.10;;;1.10;;
15643;SDS011;7921;43.586;1.408;2022-07-29T13:48:14;3.17;;;1.33;;
15643;SDS011;7921;43.586;1.408;2022-07-29T13:50:39;2.03;;;1.20;;
15643;SDS011;7921;43.586;1.408;2022-07-29T13:53:05;2.15;;;1.33;;
15643;SDS011;7921;43.586;1.408;2022-07-29T13:55:30;1.85;;;1.70;;
15643;SDS011;7921;43.586;1.408;2022-07-29T13:57:55;4.47;;;1.10;;
15643;SDS011;7921;43.586;1.408;2022-07-29T14:00:21;2.92;;;1.70;;
15643;SDS011;7921;43.586;1.408;2022-07-29T14:02:48;2.40;;;1.38;;
15643;SDS011;7921;43.586;1.408;2022-07-29T14:05:14;2.17;;;1.80;;
15643;SDS011;7921;43.586;1.408;2022-07-29T14:07:39;4.63;;;2.03;;
15643;SDS011;7921;43.586;1.408;2022-07-29T14:10:05;2.03;;;1.30;;
15643;SDS011;7921;43.586;1.408;2022-07-29T14:12:30;2.00;;;1.70;;
15643;SDS011;7921;43.586;1.408;2022-07-29T14:14:56;2.38;;;1.73;;
15643;SDS011;7921;43.586;1.408;2022-07-29T14:17:21;3.42;;;1.60;;
15643;SDS011;7921;43.586;1.408;2022-07-29T14:19:47;4.50;;;1.33;;
15643;SDS011;7921;43.586;1.408;2022-07-29T14:22:13;2.22;;;1.60;;
15643;SDS011;7921;43.586;1.408;2022-07-29T14:24:38;4.10;;;1.75;;
15643;SDS011;7921;43.586;1.408;2022-07-29T14:27:05;1.58;;;1.17;;
15643;SDS011;7921;43.586;1.408;2022-07-29T14:29:31;1.70;;;1.60;;
15643;SDS011;7921;43.586;1.408;2022-07-29T14:31:56;2.67;;;2.15;;
15643;SDS011;7921;43.586;1.408;2022-07-29T14:34:22;3.08;;;1.55;;
15643;SDS011;7921;43.586;1.408;2022-07-29T14:36:47;3.05;;;1.65;;
15643;SDS011;7921;43.586;1.408;2022-07-29T14:39:12;1.63;;;1.35;;
15643;SDS011;7921;43.586;1.408;2022-07-29T14:41:38;1.30;;;1.15;;
15643;SDS011;7921;43.586;1.408;2022-07-29T14:44:03;3.92;;;1.25;;
15643;SDS011;7921;43.586;1.408;2022-07-29T14:46:29;2.80;;;1.17;;
15643;SDS011;7921;43.586;1.408;2022-07-29T14:48:54;1.25;;;1.17;;
15643;SDS011;7921;43.586;1.408;2022-07-29T14:51:20;1.17;;;1.05;;
15643;SDS011;7921;43.586;1.408;2022-07-29T14:53:45;2.25;;;1.40;;
15643;SDS011;7921;43.586;1.408;2022-07-29T14:56:11;2.88;;;1.33;;
15643;SDS011;7921;43.586;1.408;2022-07-29T14:58:36;1.50;;;1.30;;
15643;SDS011;7921;43.586;1.408;2022-07-29T15:01:02;3.83;;;1.50;;
15643;SDS011;7921;43.586;1.408;2022-07-29T15:03:27;3.17;;;1.30;;
15643;SDS011;7921;43.586;1.408;2022-07-29T15:05:53;1.73;;;0.90;;
15643;SDS011;7921;43.586;1.408;2022-07-29T15:08:18;1.25;;;1.02;;
15643;SDS011;7921;43.586;1.408;2022-07-29T15:10:44;1.30;;;1.20;;
15643;SDS011;7921;43.586;1.408;2022-07-29T15:13:09;3.65;;;1.20;;
15643;SDS011;7921;43.586;1.408;2022-07-29T15:15:35;4.38;;;1.35;;
15643;SDS011;7921;43.586;1.408;2022-07-29T15:18:00;2.30;;;1.17;;
15643;SDS011;7921;43.586;1.408;2022-07-29T15:20:25;3.22;;;1.45;;
15643;SDS011;7921;43.586;1.408;2022-07-29T15:22:52;1.20;;;1.08;;
15643;SDS011;7921;43.586;1.408;2022-07-29T15:25:18;1.30;;;1.10;;
15643;SDS011;7921;43.586;1.408;2022-07-29T15:27:43;1.45;;;1.10;;
15643;SDS011;7921;43.586;1.408;2022-07-29T15:30:09;1.70;;;1.33;;
15643;SDS011;7921;43.586;1.408;2022-07-29T15:32:35;2.92;;;1.38;;
15643;SDS011;7921;43.586;1.408;2022-07-29T15:35:00;4.55;;;1.10;;
15643;SDS011;7921;43.586;1.408;2022-07-29T15:37:26;8.45;;;2.25;;
15643;SDS011;7921;43.586;1.408;2022-07-29T15:39:53;1.35;;;1.25;;
15643;SDS011;7921;43.586;1.408;2022-07-29T15:42:18;2.10;;;1.10;;
15643;SDS011;7921;43.586;1.408;2022-07-29T15:44:43;1.67;;;1.50;;
15643;SDS011;7921;43.586;1.408;2022-07-29T15:47:09;3.25;;;1.25;;
15643;SDS011;7921;43.586;1.408;2022-07-29T15:49:35;2.13;;;1.42;;
15643;SDS011;7921;43.586;1.408;2022-07-29T15:52:03;2.30;;;1.30;;
15643;SDS011;7921;43.586;1.408;2022-07-29T15:54:38;1.65;;;1.10;;
15643;SDS011;7921;43.586;1.408;2022-07-29T15:57:05;2.42;;;1.27;;
15643;SDS011;7921;43.586;1.408;2022-07-29T15:59:31;2.63;;;1.50;;
15643;SDS011;7921;43.586;1.408;2022-07-29T16:01:56;2.15;;;1.60;;
15643;SDS011;7921;43.586;1.408;2022-07-29T16:04:22;2.25;;;1.30;;
15643;SDS011;7921;43.586;1.408;2022-07-29T16:06:48;1.77;;;1.35;;
15643;SDS011;7921;43.586;1.408;2022-07-29T16:09:14;2.35;;;1.20;;
15643;SDS011;7921;43.586;1.408;2022-07-29T16:11:40;2.67;;;1.27;;
15643;SDS011;7921;43.586;1.408;2022-07-29T16:14:06;2.67;;;1.33;;
15643;SDS011;7921;43.586;1.408;2022-07-29T16:16:31;2.85;;;1.30;;
15643;SDS011;7921;43.586;1.408;2022-07-29T16:18:57;1.20;;;0.93;;
15643;SDS011;7921;43.586;1.408;2022-07-29T16:21:22;1.88;;;1.17;;
15643;SDS011;7921;43.586;1.408;2022-07-29T16:23:48;1.85;;;1.50;;
15643;SDS011;7921;43.586;1.408;2022-07-29T16:26:13;2.35;;;1.70;;
15643;SDS011;7921;43.586;1.408;2022-07-29T16:28:39;1.50;;;1.40;;
15643;SDS011;7921;43.586;1.408;2022-07-29T16:31:04;1.73;;;1.40;;
15643;SDS011;7921;43.586;1.408;2022-07-29T16:33:29;1.40;;;1.15;;